Darstellungsparameter: Aktuell verwendete Einstellungen:
Skalierung der Graphiken ... ?
xyx+y,   Skalierungsfaktor:      Skalierung: Modus: x, Faktor: 1
Darstellungszeitraum ... ?
Vom - - bis: - -   Zeitraum: 28.07.2021 - 28.07.2021
Min/Max/Avg-Anzeige ... ?
Zeige MMA aktuell
Zeige MMA Monat
Zeige MMA alles
Zeige --A aktuell
Zeige --A Monat
Zeige --A alles
Keine MMA-Anzeige
MMA:
Average (ber die Originaldaten)
MMA-Basis: 28.07.2021 - 28.07.2021
Quicknavigation für Darstellung... ?
Tage:      1T, 2T, 3T, 5T -1T -2T -3T -5T +1T +2T +3T +5T
Wochen: 1W, 2W, 3W -1W -2W -3W +1W +2W +3W
Monate: 1M, 3M, 6M -1M -3M -6M +1M +3M +6M
Jahre:    1J, 3J, 5J, 10J -1J -3J -5J -10J +1J +3J +5J +10J
Nutze für die Darstellung ... ?
Originaldaten oder Mittelwerte auf ...
Stundenbasis Tagesbasis Wochenbasis
Monatsbasis Jahresbasis      Datenbasis: Original-Daten
Darstellen als:
Statistik (Auto) Statistik J:M      Darstellung:

Der gewünschte Datumsbereich war nicht gültig/verfügbar und wurde korrigiert....
Das angegebene Enddatum (28.08.2021 23:59:59) liegt in der Zukunft.
Das angegebene Startdatum (28.08.2021 00:00:00) liegt in der Zukunft.


Zur Graphik,    zurück zur Übersicht aller Sensoren.
 
Tabellarische Datenbersicht: ?
 
Sensor: Nr:Datum:Temp:Abs-Feuchte:Windchill:Wind:
Aussen-T/F 1 28-07-2021 02:00:00 14 C 11.58 g/m*3 14 C 0 km/h
2 28-07-2021 02:05:00 13.9 C 11.51 g/m*3 13.9 C 0 km/h
3 28-07-2021 02:10:00 13.9 C 11.51 g/m*3 13.9 C 0 km/h
4 28-07-2021 02:15:00 13.9 C 11.51 g/m*3 13.9 C 0 km/h
5 28-07-2021 02:20:00 13.8 C 11.44 g/m*3 13.8 C 0 km/h
6 28-07-2021 02:25:00 13.8 C 11.44 g/m*3 13.8 C 0 km/h
7 28-07-2021 02:30:00 13.8 C 11.44 g/m*3 13.8 C 0 km/h
8 28-07-2021 02:35:00 13.8 C 11.44 g/m*3 13.8 C 0 km/h
9 28-07-2021 02:40:00 13.7 C 11.37 g/m*3 13.7 C 0 km/h
10 28-07-2021 02:45:00 13.7 C 11.37 g/m*3 13.7 C 0 km/h
11 28-07-2021 02:50:00 13.7 C 11.37 g/m*3 13.7 C 0 km/h
12 28-07-2021 02:55:00 13.8 C 11.44 g/m*3 13.8 C 0 km/h
13 28-07-2021 03:00:00 13.8 C 11.56 g/m*3 13.8 C 0 km/h
14 28-07-2021 03:05:00 13.9 C 11.63 g/m*3 13.9 C 0 km/h
15 28-07-2021 03:10:00 14 C 11.7 g/m*3 14 C 0 km/h
16 28-07-2021 03:15:00 14.1 C 11.77 g/m*3 14.1 C 0 km/h
17 28-07-2021 03:20:00 14.2 C 11.84 g/m*3 14.2 C 1.6 km/h
18 28-07-2021 03:25:00 14.3 C 11.92 g/m*3 14.3 C 0 km/h
19 28-07-2021 03:30:00 14.3 C 11.92 g/m*3 14.3 C 0 km/h
20 28-07-2021 03:35:00 14.3 C 11.92 g/m*3 14.3 C 0 km/h
21 28-07-2021 03:40:00 14.3 C 11.92 g/m*3 14.3 C 0 km/h
22 28-07-2021 03:45:00 14.3 C 11.92 g/m*3 14.3 C 0 km/h
23 28-07-2021 03:50:00 14.3 C 11.92 g/m*3 14.3 C 0 km/h
24 28-07-2021 03:55:00 14.3 C 11.92 g/m*3 14.3 C 0 km/h
25 28-07-2021 04:00:00 14.3 C 11.92 g/m*3 14.3 C 0 km/h
Sensor: Nr:Datum:Temp:Abs-Feuchte:Windchill:Wind:
Aussen-T/F 26 28-07-2021 04:05:00 14.3 C 11.92 g/m*3 14.3 C 0 km/h
27 28-07-2021 04:10:00 14.3 C 11.92 g/m*3 14.3 C 0 km/h
28 28-07-2021 04:15:00 14.3 C 11.92 g/m*3 14.3 C 0 km/h
29 28-07-2021 04:20:00 14.3 C 11.92 g/m*3 14.3 C 0 km/h
30 28-07-2021 04:25:00 14.2 C 11.84 g/m*3 14.2 C 0 km/h
31 28-07-2021 04:30:00 14.2 C 11.84 g/m*3 14.2 C 0 km/h
32 28-07-2021 04:35:00 14.2 C 11.84 g/m*3 14.2 C 0 km/h
33 28-07-2021 04:40:00 14.3 C 11.92 g/m*3 14.3 C 0 km/h
34 28-07-2021 04:45:00 14.3 C 11.92 g/m*3 14.3 C 0 km/h
35 28-07-2021 04:50:00 14.4 C 11.99 g/m*3 14.4 C 0 km/h
36 28-07-2021 04:55:00 14.5 C 12.06 g/m*3 14.5 C 0 km/h
37 28-07-2021 05:00:00 14.6 C 12.14 g/m*3 14.6 C 0 km/h
38 28-07-2021 05:05:00 14.6 C 12.14 g/m*3 14.6 C 0 km/h
39 28-07-2021 05:10:00 14.7 C 12.21 g/m*3 14.7 C 0 km/h
40 28-07-2021 05:15:00 14.7 C 12.21 g/m*3 14.7 C 0 km/h
41 28-07-2021 05:20:00 14.8 C 12.29 g/m*3 14.8 C 0 km/h
42 28-07-2021 05:25:00 14.8 C 12.29 g/m*3 14.8 C 0 km/h
43 28-07-2021 05:30:00 14.8 C 12.29 g/m*3 14.8 C 0 km/h
44 28-07-2021 05:35:00 14.9 C 12.36 g/m*3 14.9 C 0 km/h
45 28-07-2021 05:40:00 14.9 C 12.36 g/m*3 14.9 C 0 km/h
46 28-07-2021 05:45:00 15 C 12.44 g/m*3 15 C 0 km/h
47 28-07-2021 05:50:00 15 C 12.44 g/m*3 15 C 0 km/h
48 28-07-2021 05:55:00 15.1 C 12.51 g/m*3 15.1 C 0 km/h
49 28-07-2021 06:00:00 15.1 C 12.51 g/m*3 15.1 C 0 km/h
50 28-07-2021 06:05:00 15.1 C 12.51 g/m*3 15.1 C 0 km/h
Sensor: Nr:Datum:Temp:Abs-Feuchte:Windchill:Wind:
Aussen-T/F 51 28-07-2021 06:10:00 15.1 C 12.51 g/m*3 15.1 C 0 km/h
52 28-07-2021 06:15:00 15.1 C 12.51 g/m*3 15.1 C 0 km/h
53 28-07-2021 06:20:00 15.1 C 12.51 g/m*3 15.1 C 0 km/h
54 28-07-2021 06:25:00 15.1 C 12.51 g/m*3 15.1 C 0 km/h
55 28-07-2021 06:30:00 15.2 C 12.59 g/m*3 15.2 C 0 km/h
56 28-07-2021 06:35:00 15.3 C 12.67 g/m*3 15.3 C 1.6 km/h
57 28-07-2021 06:40:00 15.4 C 12.74 g/m*3 15.4 C 0 km/h
58 28-07-2021 06:45:00 15.4 C 12.74 g/m*3 15.4 C 0 km/h
59 28-07-2021 06:50:00 15.5 C 12.82 g/m*3 15.5 C 0 km/h
60 28-07-2021 06:55:00 15.5 C 12.82 g/m*3 15.5 C 0 km/h
61 28-07-2021 07:00:00 15.6 C 12.9 g/m*3 15.6 C 0 km/h
62 28-07-2021 07:05:00 15.6 C 12.9 g/m*3 15.6 C 0 km/h
63 28-07-2021 07:10:00 15.6 C 12.9 g/m*3 15.6 C 1.6 km/h
64 28-07-2021 07:15:00 15.7 C 12.98 g/m*3 15.7 C 0 km/h
65 28-07-2021 07:20:00 15.7 C 12.98 g/m*3 15.7 C 0 km/h
66 28-07-2021 07:25:00 15.8 C 13.06 g/m*3 15.8 C 0 km/h
67 28-07-2021 07:30:00 15.8 C 13.06 g/m*3 15.8 C 0 km/h
68 28-07-2021 07:35:00 15.9 C 13.14 g/m*3 15.9 C 0 km/h
69 28-07-2021 07:40:00 16 C 13.35 g/m*3 16 C 0 km/h
70 28-07-2021 07:45:00 16.1 C 13.43 g/m*3 16.1 C 0 km/h
71 28-07-2021 07:50:00 16.2 C 13.38 g/m*3 16.2 C 0 km/h
72 28-07-2021 07:55:00 16.3 C 13.6 g/m*3 16.3 C 0 km/h
73 28-07-2021 08:00:00 16.4 C 13.68 g/m*3 16.4 C 0 km/h
74 28-07-2021 08:05:00 16.5 C 13.76 g/m*3 16.5 C 0 km/h
75 28-07-2021 08:10:00 16.5 C 13.62 g/m*3 16.5 C 0 km/h
Sensor: Nr:Datum:Temp:Abs-Feuchte:Windchill:Wind:
Aussen-T/F 76 28-07-2021 08:15:00 16.6 C 13.7 g/m*3 16.6 C 0 km/h
77 28-07-2021 08:20:00 16.6 C 13.7 g/m*3 16.6 C 0 km/h
78 28-07-2021 08:25:00 16.7 C 13.79 g/m*3 16.7 C 0 km/h
79 28-07-2021 08:30:00 16.8 C 14.01 g/m*3 16.8 C 0 km/h
80 28-07-2021 08:35:00 16.9 C 14.1 g/m*3 16.9 C 0 km/h
81 28-07-2021 08:40:00 17 C 14.18 g/m*3 17 C 0 km/h
82 28-07-2021 08:45:00 17 C 14.04 g/m*3 17 C 3.2 km/h
83 28-07-2021 08:50:00 16.9 C 13.95 g/m*3 16.9 C 0 km/h
84 28-07-2021 08:55:00 17 C 14.18 g/m*3 17 C 0 km/h
85 28-07-2021 09:00:00 17.1 C 14.27 g/m*3 17.1 C 0 km/h
86 28-07-2021 09:05:00 17.3 C 14.44 g/m*3 17.3 C 0 km/h
87 28-07-2021 09:10:00 17.4 C 14.52 g/m*3 17.4 C 1.6 km/h
88 28-07-2021 09:15:00 17.4 C 14.52 g/m*3 17.4 C 0 km/h
89 28-07-2021 09:20:00 17.6 C 14.7 g/m*3 17.6 C 0 km/h
90 28-07-2021 09:25:00 17.6 C 14.7 g/m*3 17.6 C 1.6 km/h
91 28-07-2021 09:30:00 17.4 C 14.38 g/m*3 17.4 C 11.3 km/h
92 28-07-2021 09:35:00 17.2 C 14.2 g/m*3 17.2 C 9.7 km/h
93 28-07-2021 09:40:00 17.2 C 14.2 g/m*3 17.2 C 0 km/h
94 28-07-2021 09:45:00 17.4 C 14.38 g/m*3 17.4 C 4.8 km/h
95 28-07-2021 09:50:00 17.5 C 14.46 g/m*3 17.5 C 1.6 km/h
96 28-07-2021 09:55:00 17.5 C 14.46 g/m*3 17.5 C 1.6 km/h
97 28-07-2021 10:00:00 17.6 C 14.55 g/m*3 17.6 C 4.8 km/h
98 28-07-2021 10:05:00 17.6 C 14.55 g/m*3 17.6 C 1.6 km/h
99 28-07-2021 10:10:00 17.7 C 14.64 g/m*3 17.7 C 0 km/h
100 28-07-2021 10:15:00 17.8 C 14.72 g/m*3 17.8 C 4.8 km/h
Sensor: Nr:Datum:Temp:Abs-Feuchte:Windchill:Wind:
Aussen-T/F 101 28-07-2021 10:20:00 17.8 C 14.72 g/m*3 17.8 C 4.8 km/h
102 28-07-2021 10:25:00 17.8 C 14.72 g/m*3 17.8 C 6.4 km/h
103 28-07-2021 10:30:00 17.7 C 14.48 g/m*3 17.7 C 4.8 km/h
104 28-07-2021 10:35:00 17.8 C 14.57 g/m*3 17.8 C 4.8 km/h
105 28-07-2021 10:40:00 17.8 C 14.57 g/m*3 17.8 C 4.8 km/h
106 28-07-2021 10:45:00 17.9 C 14.66 g/m*3 17.9 C 8.1 km/h
107 28-07-2021 10:50:00 18 C 14.75 g/m*3 18 C 3.2 km/h
108 28-07-2021 10:55:00 18.1 C 14.83 g/m*3 18.1 C 1.6 km/h
109 28-07-2021 11:00:00 18.3 C 15.01 g/m*3 18.3 C 3.2 km/h
110 28-07-2021 11:05:00 18.4 C 14.94 g/m*3 18.4 C 6.4 km/h
111 28-07-2021 11:10:00 18.4 C 14.78 g/m*3 18.4 C 8.1 km/h
112 28-07-2021 11:15:00 18.4 C 14.63 g/m*3 18.4 C 11.3 km/h
113 28-07-2021 11:20:00 18.4 C 14.63 g/m*3 18.4 C 12.9 km/h
114 28-07-2021 11:25:00 18.4 C 14.47 g/m*3 18.4 C 12.9 km/h
115 28-07-2021 11:30:00 18.5 C 14.56 g/m*3 18.5 C 14.5 km/h
116 28-07-2021 11:35:00 18.6 C 14.48 g/m*3 18.6 C 14.5 km/h
117 28-07-2021 11:40:00 18.7 C 14.57 g/m*3 18.7 C 9.7 km/h
118 28-07-2021 11:45:00 18.9 C 14.58 g/m*3 18.9 C 14.5 km/h
119 28-07-2021 11:50:00 19.1 C 14.59 g/m*3 19.1 C 17.7 km/h
120 28-07-2021 11:55:00 19.1 C 14.43 g/m*3 19.1 C 11.3 km/h
121 28-07-2021 12:00:00 19.1 C 14.59 g/m*3 19.1 C 12.9 km/h
122 28-07-2021 12:05:00 19.2 C 14.51 g/m*3 19.2 C 19.3 km/h
123 28-07-2021 12:10:00 19.5 C 14.6 g/m*3 19.5 C 19.3 km/h
124 28-07-2021 12:15:00 19.7 C 14.43 g/m*3 19.7 C 19.3 km/h
125 28-07-2021 12:20:00 19.8 C 14.52 g/m*3 19.8 C 16.1 km/h
Sensor: Nr:Datum:Temp:Abs-Feuchte:Windchill:Wind:
Aussen-T/F 126 28-07-2021 12:25:00 19.9 C 14.6 g/m*3 19.9 C 11.3 km/h
127 28-07-2021 12:30:00 20 C 14.52 g/m*3 20 C 11.3 km/h
128 28-07-2021 12:35:00 20.1 C 14.43 g/m*3 20.1 C 17.7 km/h
129 28-07-2021 12:40:00 20.2 C 14.51 g/m*3 20.2 C 16.1 km/h
130 28-07-2021 12:45:00 20.2 C 14.51 g/m*3 20.2 C 16.1 km/h
131 28-07-2021 12:50:00 20.3 C 14.42 g/m*3 20.3 C 11.3 km/h
132 28-07-2021 12:55:00 20.4 C 14.51 g/m*3 20.4 C 17.7 km/h
133 28-07-2021 13:00:00 20.7 C 14.58 g/m*3 20.7 C 14.5 km/h
134 28-07-2021 13:05:00 20.8 C 14.49 g/m*3 20.8 C 17.7 km/h
135 28-07-2021 13:10:00 20.9 C 14.57 g/m*3 20.9 C 14.5 km/h
136 28-07-2021 13:15:00 20.9 C 14.75 g/m*3 20.9 C 9.7 km/h
137 28-07-2021 13:20:00 20.9 C 14.57 g/m*3 20.9 C 14.5 km/h
138 28-07-2021 13:25:00 20.9 C 14.57 g/m*3 20.9 C 11.3 km/h
139 28-07-2021 13:30:00 20.9 C 14.21 g/m*3 20.9 C 14.5 km/h
140 28-07-2021 13:35:00 21 C 14.29 g/m*3 21 C 11.3 km/h
141 28-07-2021 13:40:00 21.2 C 14.83 g/m*3 21.2 C 12.9 km/h
142 28-07-2021 13:45:00 21.1 C 14.19 g/m*3 21.1 C 16.1 km/h
143 28-07-2021 13:50:00 21 C 14.47 g/m*3 21 C 11.3 km/h
144 28-07-2021 13:55:00 20.9 C 14.21 g/m*3 20.9 C 11.3 km/h
145 28-07-2021 14:00:00 20.8 C 14.12 g/m*3 20.8 C 12.9 km/h
146 28-07-2021 14:05:00 20.8 C 14.12 g/m*3 20.8 C 12.9 km/h
147 28-07-2021 14:10:00 20.7 C 13.86 g/m*3 20.7 C 16.1 km/h
148 28-07-2021 14:15:00 20.6 C 14.14 g/m*3 20.6 C 9.7 km/h
149 28-07-2021 14:20:00 20.8 C 13.94 g/m*3 20.8 C 12.9 km/h
150 28-07-2021 14:25:00 21.1 C 14.37 g/m*3 21.1 C 16.1 km/h
Sensor: Nr:Datum:Temp:Abs-Feuchte:Windchill:Wind:
Aussen-T/F 151 28-07-2021 14:30:00 21.2 C 14.27 g/m*3 21.2 C 14.5 km/h
152 28-07-2021 14:35:00 21.3 C 14.17 g/m*3 21.3 C 12.9 km/h
153 28-07-2021 14:40:00 21.3 C 14.54 g/m*3 21.3 C 12.9 km/h
154 28-07-2021 14:45:00 21.3 C 14.54 g/m*3 21.3 C 14.5 km/h
155 28-07-2021 14:50:00 21.2 C 14.27 g/m*3 21.2 C 19.3 km/h
156 28-07-2021 14:55:00 21.4 C 14.44 g/m*3 21.4 C 11.3 km/h
157 28-07-2021 15:00:00 21.5 C 14.52 g/m*3 21.5 C 12.9 km/h
158 28-07-2021 15:05:00 21.6 C 14.6 g/m*3 21.6 C 19.3 km/h
159 28-07-2021 15:10:00 21.7 C 14.31 g/m*3 21.7 C 14.5 km/h
160 28-07-2021 15:15:00 21.8 C 14.97 g/m*3 21.8 C 19.3 km/h
161 28-07-2021 15:20:00 21.8 C 14.39 g/m*3 21.8 C 17.7 km/h
162 28-07-2021 15:25:00 21.8 C 14.77 g/m*3 21.8 C 11.3 km/h
163 28-07-2021 15:30:00 21.7 C 14.5 g/m*3 21.7 C 19.3 km/h
164 28-07-2021 15:35:00 22.1 C 14.45 g/m*3 22.1 C 16.1 km/h
165 28-07-2021 15:40:00 22.3 C 14.22 g/m*3 22.3 C 12.9 km/h
166 28-07-2021 15:45:00 22.4 C 14.5 g/m*3 22.4 C 12.9 km/h
167 28-07-2021 15:50:00 22.7 C 15.15 g/m*3 22.7 C 9.7 km/h
168 28-07-2021 15:55:00 23 C 14.8 g/m*3 23 C 14.5 km/h

Legende:
   Min
   Max


Maximal/Minimal-Werte vom 28.07.2021 - 28.07.2021

Sensor Min Max Avg
Temp
(Aussen-T/F)
13.7 °C
28-07-2021  02:40:00
23 °C
28-07-2021  15:55:00
17.33 °C
Abs-Feuchte
(Aussen-T/F)
11.37 g/m*3
28-07-2021  02:40:00
15.15 g/m*3
28-07-2021  15:50:00
13.4 g/m*3
Windchill
(Aussen-T/F)
13.7 C
28-07-2021  02:40:00
23 C
28-07-2021  15:55:00
17.23 C

Die Daten stammen von einer Davis Vantage Pro 2 Wetter-Station und werden unter Linux mit der Software wview2wettercgi und aufbereitet. Alle Angaben erfolgen ohne Gewähr für ihre Vollständigkeit oder Richtigkeit.
Kontakt: Rainer Krienke krienke@uni-koblenz.de . Meine Webseiten an der Uni Koblenz oder privat.
Version: $Revision: 0.78 $